createdAt,value
2023-01-17T00:05:18.565Z,15.43
2023-01-17T00:10:24.902Z,14.70
2023-01-17T00:15:30.829Z,13.95
2023-01-17T00:20:54.197Z,11.88
2023-01-17T00:26:04.943Z,10.77
2023-01-17T00:31:09.442Z,11.05
2023-01-17T00:36:13.990Z,11.00
2023-01-17T00:41:16.760Z,11.88
2023-01-17T00:46:39.630Z,10.73
2023-01-17T00:52:02.419Z,13.30
2023-01-17T00:57:25.042Z,10.23
2023-01-17T01:02:46.783Z,10.90
2023-01-17T01:08:09.852Z,9.63
2023-01-17T01:13:31.889Z,10.10
2023-01-17T01:18:53.607Z,9.60
2023-01-17T01:24:16.323Z,9.15
2023-01-17T01:29:37.975Z,9.30
2023-01-17T01:34:43.340Z,9.82
2023-01-17T01:39:48.809Z,11.25
2023-01-17T01:44:54.924Z,8.85
2023-01-17T01:50:01.933Z,9.20
2023-01-17T01:55:12.957Z,9.82
2023-01-17T02:00:20.652Z,10.18
2023-01-17T02:05:27.008Z,10.77
2023-01-17T02:10:34.751Z,9.07
2023-01-17T02:15:48.476Z,9.40
2023-01-17T02:21:03.960Z,11.75
2023-01-17T02:26:41.294Z,10.00
2023-01-17T02:31:50.840Z,9.02
2023-01-17T02:37:02.113Z,9.05
2023-01-17T02:42:09.594Z,8.63
2023-01-17T02:47:24.629Z,9.00
2023-01-17T02:52:45.089Z,9.00
2023-01-17T02:58:04.546Z,9.02
2023-01-17T03:03:20.744Z,10.38
2023-01-17T03:08:25.862Z,9.98
2023-01-17T03:13:29.959Z,17.77
2023-01-17T03:18:36.966Z,12.32
2023-01-17T03:23:41.028Z,10.38
2023-01-17T03:28:45.064Z,11.70
2023-01-17T03:33:50.515Z,11.30
2023-01-17T03:38:54.558Z,11.98
2023-01-17T03:43:58.604Z,9.93
2023-01-17T03:49:03.939Z,11.23
2023-01-17T03:54:07.975Z,13.40
2023-01-17T03:59:13.257Z,11.30
2023-01-17T04:04:18.814Z,12.45
2023-01-17T04:09:23.106Z,13.82
2023-01-17T04:14:27.396Z,16.63
2023-01-17T04:19:35.472Z,15.27
2023-01-17T04:24:39.556Z,16.23
2023-01-17T04:29:45.343Z,15.93
2023-01-17T04:34:52.054Z,18.55
2023-01-17T04:39:56.028Z,20.80
2023-01-17T04:45:00.112Z,22.38
2023-01-17T04:50:06.232Z,24.88
2023-01-17T04:55:10.658Z,22.33
2023-01-17T05:00:15.896Z,25.60
2023-01-17T05:05:21.539Z,24.15
2023-01-17T05:10:26.158Z,27.17
2023-01-17T05:15:31.120Z,25.52
2023-01-17T05:20:38.674Z,32.00
2023-01-17T05:25:44.882Z,31.10
2023-01-17T05:30:49.074Z,27.83
2023-01-17T05:35:54.513Z,37.20
2023-01-17T05:41:00.589Z,24.17
2023-01-17T05:46:04.909Z,29.15
2023-01-17T05:51:10.333Z,30.13
2023-01-17T05:56:14.393Z,40.80
2023-01-17T06:01:19.770Z,43.30
2023-01-17T06:06:25.550Z,36.90
2023-01-17T06:11:30.743Z,32.45
2023-01-17T06:16:36.381Z,38.60
2023-01-17T06:21:41.994Z,80.85
2023-01-17T06:26:46.066Z,34.95
2023-01-17T06:31:51.821Z,37.85
2023-01-17T06:36:57.196Z,27.60
2023-01-17T06:42:01.325Z,28.10
2023-01-17T06:47:05.766Z,25.45
2023-01-17T06:52:13.642Z,29.88
2023-01-17T06:57:17.638Z,39.40
2023-01-17T07:02:24.664Z,45.17
2023-01-17T07:07:31.377Z,36.47
2023-01-17T07:12:36.942Z,33.85
2023-01-17T07:17:41.107Z,45.22
2023-01-17T07:22:47.474Z,53.40
2023-01-17T07:27:54.811Z,51.15
2023-01-17T07:32:58.996Z,48.92
2023-01-17T07:38:05.859Z,39.22
2023-01-17T07:43:14.295Z,45.88
2023-01-17T07:48:22.205Z,20.10
2023-01-17T07:53:29.371Z,20.58
2023-01-17T07:58:35.846Z,20.23
2023-01-17T08:03:41.291Z,34.97
2023-01-17T08:08:47.140Z,31.30
2023-01-17T08:13:58.037Z,26.80
2023-01-17T08:19:02.045Z,23.40
2023-01-17T08:24:08.239Z,27.65
2023-01-17T08:29:12.853Z,33.42
2023-01-17T08:34:20.164Z,34.70
2023-01-17T08:39:27.753Z,27.90
2023-01-17T08:44:32.322Z,26.70
2023-01-17T08:49:36.579Z,24.75
2023-01-17T08:54:42.828Z,29.05
2023-01-17T08:59:50.359Z,27.15
2023-01-17T09:04:54.488Z,16.35
2023-01-17T09:10:00.122Z,17.38
2023-01-17T09:15:05.304Z,20.10
2023-01-17T09:20:10.745Z,12.40
2023-01-17T09:25:16.705Z,13.20
2023-01-17T09:30:20.899Z,15.05
2023-01-17T09:35:27.769Z,12.93
2023-01-17T09:40:33.933Z,14.13
2023-01-17T09:45:39.048Z,13.00
2023-01-17T09:50:48.827Z,14.02
2023-01-17T09:55:59.845Z,15.90
2023-01-17T10:01:14.797Z,17.67
2023-01-17T10:06:32.624Z,22.90
2023-01-17T10:11:50.254Z,20.10
2023-01-17T10:16:59.514Z,19.67
2023-01-17T10:27:25.615Z,21.30
2023-01-17T10:32:35.142Z,24.60
2023-01-17T10:37:42.729Z,17.43
2023-01-17T10:42:53.615Z,15.43
2023-01-17T10:48:06.129Z,11.98
2023-01-17T10:53:18.456Z,13.63
2023-01-17T10:58:26.879Z,14.38
2023-01-17T11:03:31.567Z,17.92
2023-01-17T11:08:52.204Z,18.70
2023-01-17T11:14:03.235Z,19.80
2023-01-17T11:19:18.075Z,16.08
2023-01-17T11:24:37.822Z,13.68
2023-01-17T11:35:08.393Z,14.30
2023-01-17T11:40:23.585Z,18.05
2023-01-17T11:45:30.984Z,16.58
2023-01-17T11:50:37.560Z,14.77
2023-01-17T11:55:41.857Z,16.25
2023-01-17T12:00:56.815Z,14.65
2023-01-17T12:06:09.285Z,16.13
2023-01-17T12:11:17.807Z,15.48
2023-01-17T12:16:31.280Z,11.75
2023-01-17T12:21:46.555Z,11.25
2023-01-17T12:27:00.451Z,5.18
2023-01-17T12:32:27.730Z,2.80
2023-01-17T12:37:38.852Z,4.78
2023-01-17T12:42:48.866Z,4.18
2023-01-17T12:48:01.989Z,4.18
2023-01-17T12:53:18.547Z,2.92
2023-01-17T12:58:25.816Z,3.67
2023-01-17T13:03:46.653Z,2.30
2023-01-17T13:08:56.933Z,4.00
2023-01-17T13:14:01.240Z,4.25
2023-01-17T13:19:19.781Z,7.75
2023-01-17T13:24:30.292Z,5.45
2023-01-17T13:29:50.670Z,2.75
2023-01-17T13:35:16.719Z,4.72
2023-01-17T13:40:34.535Z,4.82
2023-01-17T13:45:39.988Z,5.05
2023-01-17T13:50:53.207Z,4.72
2023-01-17T13:56:03.408Z,4.60
2023-01-17T14:01:12.903Z,4.72
2023-01-17T14:06:36.155Z,5.35
2023-01-17T14:11:53.938Z,4.38
2023-01-17T14:17:30.060Z,5.53
2023-01-17T14:22:40.813Z,4.18
2023-01-17T14:27:49.270Z,5.15
2023-01-17T14:33:16.706Z,4.47
2023-01-17T14:38:26.127Z,5.30
2023-01-17T14:43:34.997Z,3.25
2023-01-17T14:48:41.576Z,4.68
2023-01-17T14:53:58.211Z,4.03
2023-01-17T14:59:08.261Z,4.97
2023-01-17T15:04:26.877Z,4.93
2023-01-17T15:09:37.024Z,3.88
2023-01-17T15:14:46.415Z,4.50
2023-01-17T15:19:55.129Z,3.83
2023-01-17T15:25:02.862Z,3.60
2023-01-17T15:30:09.700Z,5.78
2023-01-17T15:35:19.028Z,6.18
2023-01-17T15:40:28.072Z,5.60
2023-01-17T15:45:36.180Z,7.53
2023-01-17T15:50:45.922Z,7.35
2023-01-17T15:55:53.745Z,5.32
2023-01-17T16:00:59.327Z,4.00
2023-01-17T16:06:05.088Z,4.10
2023-01-17T16:11:16.309Z,5.90
2023-01-17T16:16:24.652Z,5.88
2023-01-17T16:21:31.768Z,5.22
2023-01-17T16:26:37.238Z,3.05
2023-01-17T16:31:41.900Z,3.85
2023-01-17T16:36:45.994Z,4.95
2023-01-17T16:41:52.255Z,4.25
2023-01-17T16:47:00.415Z,3.47
2023-01-17T16:52:06.176Z,4.57
2023-01-17T16:57:12.745Z,6.28
2023-01-17T17:02:18.861Z,7.57
2023-01-17T17:07:23.330Z,10.30
2023-01-17T17:12:29.327Z,7.65
2023-01-17T17:17:39.559Z,6.35
2023-01-17T17:22:48.814Z,8.20
2023-01-17T17:27:54.603Z,5.95
2023-01-17T17:32:59.558Z,4.72
2023-01-17T17:38:05.773Z,3.50
2023-01-17T17:43:11.173Z,3.47
2023-01-17T17:48:15.191Z,3.50
2023-01-17T17:53:20.915Z,3.20
2023-01-17T17:58:27.374Z,5.38
2023-01-17T18:03:32.757Z,4.35
2023-01-17T18:08:38.984Z,3.65
2023-01-17T18:13:45.656Z,3.50
2023-01-17T18:18:51.690Z,4.20
2023-01-17T18:23:58.873Z,3.65
2023-01-17T18:29:07.673Z,2.20
2023-01-17T18:34:13.117Z,4.40
2023-01-17T18:39:19.261Z,2.45
2023-01-17T18:44:25.361Z,2.08
2023-01-17T18:49:32.698Z,3.78
2023-01-17T18:54:37.086Z,7.22
2023-01-17T18:59:44.399Z,5.13
2023-01-17T19:04:48.860Z,2.75
2023-01-17T19:09:53.254Z,1.65
2023-01-17T19:14:58.643Z,2.95
2023-01-17T19:20:03.786Z,2.20
2023-01-17T19:25:10.177Z,2.53
2023-01-17T19:30:17.889Z,1.80
2023-01-17T19:35:22.806Z,2.10
2023-01-17T19:40:28.799Z,1.50
2023-01-17T19:45:34.257Z,1.40
2023-01-17T19:50:38.357Z,2.45
2023-01-17T19:55:43.418Z,2.38
2023-01-17T20:00:49.017Z,2.55
2023-01-17T20:05:57.769Z,2.25
2023-01-17T20:11:03.467Z,3.50
2023-01-17T20:16:11.499Z,4.15
2023-01-17T20:21:18.383Z,2.00
2023-01-17T20:26:25.999Z,1.45
2023-01-17T20:31:32.349Z,2.45
2023-01-17T20:36:37.225Z,1.60
2023-01-17T20:41:42.698Z,1.30
2023-01-17T20:46:49.777Z,2.67
2023-01-17T20:51:55.715Z,1.80
2023-01-17T20:57:01.496Z,1.60
2023-01-17T21:02:11.005Z,1.42
2023-01-17T21:07:15.135Z,1.60
2023-01-17T21:12:19.367Z,1.50
2023-01-17T21:17:25.453Z,1.30
2023-01-17T21:22:31.149Z,1.48
2023-01-17T21:27:35.641Z,1.55
2023-01-17T21:32:41.097Z,2.65
2023-01-17T21:37:48.885Z,1.42
2023-01-17T21:42:53.656Z,1.35
2023-01-17T21:48:00.094Z,1.20
2023-01-17T21:53:04.642Z,1.48
2023-01-17T21:58:33.547Z,1.20
2023-01-17T22:03:39.154Z,1.42
2023-01-17T22:08:43.477Z,1.40
2023-01-17T22:13:48.579Z,1.48
2023-01-17T22:18:53.958Z,1.92
2023-01-17T22:24:00.561Z,1.38
2023-01-17T22:29:05.586Z,1.42
2023-01-17T22:34:11.161Z,1.58
2023-01-17T22:39:15.502Z,1.67
2023-01-17T22:44:22.105Z,1.25
2023-01-17T22:49:29.947Z,1.20
2023-01-17T22:54:34.074Z,1.23
2023-01-17T22:59:38.608Z,1.23
2023-01-17T23:04:44.106Z,1.40
2023-01-17T23:09:48.259Z,0.93
2023-01-17T23:15:09.558Z,1.48
2023-01-17T23:20:17.744Z,0.90
2023-01-17T23:25:22.443Z,1.08
2023-01-17T23:30:29.975Z,1.10
2023-01-17T23:35:41.689Z,1.20
2023-01-17T23:41:07.951Z,0.80
2023-01-17T23:46:13.984Z,1.10
2023-01-17T23:51:20.092Z,1.10
2023-01-17T23:56:25.974Z,1.13
